Ladybank, United Kingdom
Current Conditions -  °F | °C
As of 9:50 PM on Thursday 27 Nov 2014 (Local Time) from EGQL Reporting Station
Haze Haze  
Wind Chill: 50°   Ceiling: 700
Heat Index: 50°   Visibility: 2.5mi
Dew Point: 50°   Wind: 6mph
Humidity: 100%   Direction: 120°ESE
Pressure: 29.62"   Gusts: NA
Location:  56.27°N, 3.12°W
Report Text: EGQL 272150Z 12005KT 4000 BR BKN007 10/10 Q1003 GRN
Loading
Personal Weather Stations






























Interactive Weather Map New forecast layout! Learn more

10-Day Weather Forecast

Advertisements
Track Severe Weather on mobile